createdAt,value
2022-11-29T00:01:24.043Z,98401.31
2022-11-29T00:03:54.180Z,98392.78
2022-11-29T00:06:24.240Z,98396.91
2022-11-29T00:08:52.096Z,98394.78
2022-11-29T00:11:37.378Z,98405.75
2022-11-29T00:14:05.895Z,98389.59
2022-11-29T00:16:34.008Z,98391.72
2022-11-29T00:19:03.798Z,98392.22
2022-11-29T00:21:31.695Z,98391.50
2022-11-29T00:23:59.581Z,98399.19
2022-11-29T00:30:45.491Z,98380.75
2022-11-29T00:33:13.308Z,98391.13
2022-11-29T00:35:42.574Z,98387.50
2022-11-29T00:38:13.399Z,98391.94
2022-11-29T00:40:41.262Z,98391.31
2022-11-29T00:43:09.127Z,98391.31
2022-11-29T00:45:37.027Z,98390.25
2022-11-29T00:48:05.190Z,98396.59
2022-11-29T00:55:01.597Z,98393.09
2022-11-29T00:57:29.441Z,98394.78
2022-11-29T00:59:57.307Z,98395.72
2022-11-29T01:02:25.157Z,98396.47
2022-11-29T01:04:56.062Z,98400.59
2022-11-29T01:07:23.910Z,98398.16
2022-11-29T01:09:51.749Z,98403.53
2022-11-29T01:12:20.886Z,98403.53
2022-11-29T01:14:48.749Z,98402.25
2022-11-29T01:17:16.860Z,98398.56
2022-11-29T01:19:50.814Z,98400.69
2022-11-29T01:27:10.110Z,98404.59
2022-11-29T01:29:39.712Z,98402.91
2022-11-29T01:32:07.519Z,98403.75
2022-11-29T01:34:35.368Z,98402.69
2022-11-29T01:37:03.206Z,98404.81
2022-11-29T01:39:33.475Z,98408.16
2022-11-29T01:42:02.301Z,98409.09
2022-11-29T01:45:03.286Z,98410.59
2022-11-29T01:47:31.688Z,98407.75
2022-11-29T01:50:03.748Z,98407.19
2022-11-29T01:52:33.882Z,98409.22
2022-11-29T01:55:04.966Z,98404.50
2022-11-29T01:57:37.879Z,98401.84
2022-11-29T02:00:11.763Z,98403.31
2022-11-29T02:02:45.528Z,98406.03
2022-11-29T02:05:16.014Z,98404.38
2022-11-29T02:07:47.267Z,98403.53
2022-11-29T02:14:50.990Z,98400.13
2022-11-29T02:17:31.518Z,98401.06
2022-11-29T02:25:09.637Z,98408.25
2022-11-29T02:28:19.876Z,98404.34
2022-11-29T02:31:03.124Z,98405.91
2022-11-29T02:33:55.124Z,98406.63
2022-11-29T02:36:53.997Z,98411.91
2022-11-29T02:39:39.376Z,98406.53
2022-11-29T02:42:54.059Z,98402.84
2022-11-29T02:45:38.450Z,98406.28
2022-11-29T02:48:23.497Z,98410.63
2022-11-29T02:50:58.983Z,98407.69
2022-11-29T02:53:32.582Z,98409.19
2022-11-29T02:56:09.562Z,98408.94
2022-11-29T02:58:44.940Z,98409.31
2022-11-29T03:01:21.148Z,98413.63
2022-11-29T03:03:55.922Z,98410.25
2022-11-29T03:06:34.999Z,98410.88
2022-11-29T03:09:09.789Z,98412.13
2022-11-29T03:11:46.503Z,98414.75
2022-11-29T03:14:25.582Z,98419.72
2022-11-29T03:17:02.624Z,98418.66
2022-11-29T03:20:04.673Z,98431.84
2022-11-29T03:27:02.619Z,98427.94
2022-11-29T03:29:37.291Z,98435.28
2022-11-29T03:32:12.780Z,98435.84
2022-11-29T03:34:57.314Z,98436.78
2022-11-29T03:37:31.680Z,98429.28
2022-11-29T03:40:08.009Z,98424.94
2022-11-29T03:42:44.239Z,98426.31
2022-11-29T03:45:20.042Z,98429.38
2022-11-29T03:47:56.034Z,98431.28
2022-11-29T03:50:29.267Z,98432.97
2022-11-29T03:53:04.130Z,98438.03
2022-11-29T03:55:47.496Z,98443.53
2022-11-29T03:58:40.555Z,98438.25
2022-11-29T04:01:40.871Z,98439.69
2022-11-29T04:08:51.079Z,98441.19
2022-11-29T04:11:37.017Z,98440.56
2022-11-29T04:14:31.455Z,98442.84
2022-11-29T04:17:23.176Z,98446.34
2022-11-29T04:20:42.023Z,98448.59
2022-11-29T04:23:41.327Z,98447.09
2022-11-29T04:26:35.012Z,98448.47
2022-11-29T04:29:31.820Z,98452.78
2022-11-29T04:37:08.016Z,98455.81
2022-11-29T04:39:58.833Z,98466.16
2022-11-29T04:47:42.722Z,98468.28
2022-11-29T04:50:24.536Z,98469.75
2022-11-29T04:53:15.923Z,98474.78
2022-11-29T04:55:50.415Z,98469.50
2022-11-29T04:58:25.884Z,98468.91
2022-11-29T05:01:03.171Z,98475.41
2022-11-29T05:03:37.165Z,98473.66
2022-11-29T05:06:20.135Z,98483.16
2022-11-29T05:08:57.176Z,98473.00
2022-11-29T05:11:35.593Z,98483.53
2022-11-29T05:14:11.853Z,98481.75
2022-11-29T05:17:02.471Z,98479.97
2022-11-29T05:19:46.870Z,98486.28
2022-11-29T05:22:36.832Z,98484.38
2022-11-29T05:25:23.084Z,98487.97
2022-11-29T05:36:39.952Z,98494.63
2022-11-29T05:39:22.484Z,98495.38
2022-11-29T05:42:05.454Z,98495.78
2022-11-29T05:44:38.293Z,98496.41
2022-11-29T05:47:10.148Z,98501.91
2022-11-29T05:49:45.403Z,98506.13
2022-11-29T05:52:25.139Z,98505.47
2022-11-29T05:55:11.374Z,98496.41
2022-11-29T05:57:48.111Z,98512.75
2022-11-29T06:00:18.963Z,98510.53
2022-11-29T06:02:56.526Z,98508.97
2022-11-29T06:05:31.567Z,98512.66
2022-11-29T06:08:06.958Z,98511.09
2022-11-29T06:10:40.929Z,98516.38
2022-11-29T06:13:20.001Z,98510.03
2022-11-29T06:16:23.023Z,98522.81
2022-11-29T06:19:30.901Z,98525.53
2022-11-29T06:22:12.605Z,98521.56
2022-11-29T06:24:51.836Z,98528.09
2022-11-29T06:27:39.222Z,98522.41
2022-11-29T06:30:11.712Z,98537.16
2022-11-29T06:32:48.740Z,98535.44
2022-11-29T06:35:32.915Z,98536.72
2022-11-29T06:38:05.467Z,98542.00
2022-11-29T06:40:34.062Z,98543.59
2022-11-29T06:43:05.840Z,98543.50
2022-11-29T06:45:34.359Z,98542.41
2022-11-29T06:48:04.860Z,98547.50
2022-11-29T06:50:41.737Z,98549.78
2022-11-29T06:53:16.316Z,98552.00
2022-11-29T06:55:52.585Z,98547.03
2022-11-29T06:58:36.482Z,98558.22
2022-11-29T07:01:13.370Z,98559.72
2022-11-29T07:04:13.240Z,98558.44
2022-11-29T07:06:41.627Z,98558.00
2022-11-29T07:09:15.280Z,98567.91
2022-11-29T07:11:43.635Z,98570.03
2022-11-29T07:14:13.558Z,98568.56
2022-11-29T07:16:57.217Z,98565.72
2022-11-29T07:19:32.357Z,98573.81
2022-11-29T07:22:06.979Z,98570.25
2022-11-29T07:24:46.626Z,98575.75
2022-11-29T07:27:21.184Z,98579.53
2022-11-29T07:30:08.125Z,98583.22
2022-11-29T07:32:50.478Z,98579.09
2022-11-29T07:35:25.601Z,98585.00
2022-11-29T07:38:01.644Z,98584.91
2022-11-29T07:40:37.604Z,98589.44
2022-11-29T07:43:24.060Z,98585.44
2022-11-29T07:45:53.895Z,98595.13
2022-11-29T07:48:21.799Z,98594.84
2022-11-29T07:50:50.020Z,98601.47
2022-11-29T07:53:22.753Z,98598.72
2022-11-29T07:55:50.993Z,98597.91
2022-11-29T07:58:19.605Z,98601.69
2022-11-29T08:00:47.620Z,98595.34
2022-11-29T08:03:16.802Z,98606.94
2022-11-29T08:05:47.129Z,98612.03
2022-11-29T08:08:15.245Z,98607.16
2022-11-29T08:10:43.323Z,98602.94
2022-11-29T08:13:11.193Z,98600.00
2022-11-29T08:15:46.025Z,98605.91
2022-11-29T08:18:14.352Z,98615.38
2022-11-29T08:20:44.182Z,98606.94
2022-11-29T08:23:13.619Z,98609.22
2022-11-29T08:25:41.530Z,98614.53
2022-11-29T08:28:11.910Z,98615.81
2022-11-29T08:30:39.802Z,98619.81
2022-11-29T08:33:07.704Z,98611.25
2022-11-29T08:35:36.038Z,98619.94
2022-11-29T08:38:05.395Z,98620.66
2022-11-29T08:40:33.425Z,98623.19
2022-11-29T08:43:03.571Z,98629.00
2022-11-29T08:45:31.452Z,98623.41
2022-11-29T08:47:59.353Z,98628.69
2022-11-29T08:50:27.377Z,98628.91
2022-11-29T08:53:12.975Z,98632.38
2022-11-29T08:55:43.035Z,98628.38
2022-11-29T08:58:13.653Z,98637.06
2022-11-29T09:00:45.482Z,98629.75
2022-11-29T09:03:31.562Z,98640.34
2022-11-29T09:06:10.507Z,98634.16
2022-11-29T09:08:40.217Z,98647.88
2022-11-29T09:11:13.174Z,98643.22
2022-11-29T09:13:41.975Z,98644.91
2022-11-29T09:16:12.090Z,98649.31
2022-11-29T09:18:41.441Z,98654.19
2022-11-29T09:21:13.097Z,98652.91
2022-11-29T09:23:42.695Z,98654.78
2022-11-29T09:26:16.760Z,98660.09
2022-11-29T09:28:44.715Z,98658.53
2022-11-29T09:31:15.058Z,98656.50
2022-11-29T09:33:43.440Z,98666.59
2022-11-29T09:36:12.494Z,98666.91
2022-11-29T09:38:40.814Z,98665.25
2022-11-29T09:41:24.985Z,98669.25
2022-11-29T09:44:03.558Z,98667.69
2022-11-29T09:46:45.007Z,98674.00
2022-11-29T09:49:30.755Z,98669.59
2022-11-29T09:52:06.423Z,98672.31
2022-11-29T09:54:44.188Z,98675.84
2022-11-29T09:57:16.060Z,98671.91
2022-11-29T09:59:49.142Z,98677.66
2022-11-29T10:02:22.150Z,98675.91
2022-11-29T10:04:55.101Z,98680.13
2022-11-29T10:07:29.062Z,98680.53
2022-11-29T10:10:03.267Z,98683.50
2022-11-29T10:12:38.602Z,98687.88
2022-11-29T10:15:13.810Z,98693.84
2022-11-29T10:17:46.205Z,98692.88
2022-11-29T10:20:16.664Z,98689.63
2022-11-29T10:22:49.616Z,98690.56
2022-11-29T10:25:22.526Z,98681.66
2022-11-29T10:27:52.112Z,98682.25
2022-11-29T10:30:20.091Z,98691.88
2022-11-29T10:32:51.855Z,98689.75
2022-11-29T10:35:21.015Z,98684.75
2022-11-29T10:38:14.594Z,98687.91
2022-11-29T10:40:43.605Z,98675.47
2022-11-29T10:43:14.989Z,98681.47
2022-11-29T10:45:50.304Z,98684.38
2022-11-29T10:48:20.566Z,98692.41
2022-11-29T10:50:50.016Z,98683.06
2022-11-29T10:53:19.882Z,98679.53
2022-11-29T10:55:51.180Z,98682.84
2022-11-29T10:58:28.004Z,98680.53
2022-11-29T11:00:59.417Z,98685.34
2022-11-29T11:03:35.357Z,98686.09
2022-11-29T11:06:07.372Z,98690.69
2022-11-29T11:08:36.523Z,98686.31
2022-11-29T11:11:07.630Z,98688.84
2022-11-29T11:13:39.217Z,98691.81
2022-11-29T11:16:16.745Z,98694.59
2022-11-29T11:18:45.521Z,98697.56
2022-11-29T11:21:15.103Z,98696.13
2022-11-29T11:23:52.461Z,98687.25
2022-11-29T11:26:20.977Z,98684.09
2022-11-29T11:28:54.608Z,98686.00
2022-11-29T11:31:31.623Z,98688.97
2022-11-29T11:34:25.313Z,98683.44
2022-11-29T11:36:53.665Z,98688.22
2022-11-29T11:39:23.121Z,98687.78
2022-11-29T11:42:10.218Z,98691.97
2022-11-29T11:44:49.442Z,98691.53
2022-11-29T11:47:20.688Z,98698.47
2022-11-29T11:49:51.332Z,98688.66
2022-11-29T11:52:24.398Z,98697.66
2022-11-29T11:54:55.609Z,98701.91
2022-11-29T11:57:25.157Z,98695.41
2022-11-29T12:00:00.716Z,98705.75
2022-11-29T12:02:41.507Z,98710.56
2022-11-29T12:05:17.104Z,98706.75
2022-11-29T12:10:40.545Z,98714.66
2022-11-29T12:13:17.795Z,98716.84
2022-11-29T12:15:50.737Z,98718.28
2022-11-29T12:18:25.742Z,98711.34
2022-11-29T12:20:58.220Z,98716.50
2022-11-29T12:23:36.418Z,98712.53
2022-11-29T12:26:13.722Z,98722.50
2022-11-29T12:28:47.722Z,98719.47
2022-11-29T12:31:38.716Z,98730.84
2022-11-29T12:34:23.012Z,98735.81
2022-11-29T12:36:58.378Z,98726.06
2022-11-29T12:39:49.452Z,98734.69
2022-11-29T12:42:33.199Z,98728.56
2022-11-29T12:45:15.262Z,98734.28
2022-11-29T12:47:53.491Z,98725.97
2022-11-29T12:50:35.038Z,98733.75
2022-11-29T12:53:23.924Z,98731.59
2022-11-29T12:56:06.445Z,98735.16
2022-11-29T12:58:46.271Z,98734.81
2022-11-29T13:01:26.010Z,98737.00
2022-11-29T13:04:00.788Z,98736.25
2022-11-29T13:06:40.526Z,98731.16
2022-11-29T13:09:49.901Z,98730.72
2022-11-29T13:12:23.157Z,98743.00
2022-11-29T13:15:01.431Z,98742.91
2022-11-29T13:17:39.863Z,98749.75
2022-11-29T13:20:22.628Z,98742.75
2022-11-29T13:22:57.314Z,98740.25
2022-11-29T13:25:33.541Z,98746.03
2022-11-29T13:28:06.156Z,98745.09
2022-11-29T13:30:36.118Z,98749.28
2022-11-29T13:33:08.670Z,98748.41
2022-11-29T13:35:46.713Z,98750.81
2022-11-29T13:38:19.665Z,98742.19
2022-11-29T13:40:58.766Z,98743.63
2022-11-29T13:43:36.397Z,98750.25
2022-11-29T13:46:17.229Z,98748.06
2022-11-29T13:48:50.321Z,98753.13
2022-11-29T13:51:34.365Z,98752.19
2022-11-29T13:54:04.656Z,98759.91
2022-11-29T13:56:46.359Z,98761.59
2022-11-29T13:59:20.380Z,98763.25
2022-11-29T14:01:51.345Z,98762.06
2022-11-29T14:04:33.145Z,98762.25
2022-11-29T14:07:09.114Z,98762.13
2022-11-29T14:09:44.482Z,98768.66
2022-11-29T14:12:35.952Z,98771.47
2022-11-29T14:15:17.355Z,98770.06
2022-11-29T14:17:52.411Z,98772.09
2022-11-29T14:20:57.382Z,98772.25
2022-11-29T14:23:39.002Z,98765.75
2022-11-29T14:26:29.179Z,98767.59
2022-11-29T14:28:57.894Z,98771.69
2022-11-29T14:31:49.507Z,98767.78
2022-11-29T14:34:27.888Z,98767.19
2022-11-29T14:37:05.080Z,98770.97
2022-11-29T14:39:43.255Z,98774.47
2022-11-29T14:42:17.053Z,98773.78
2022-11-29T14:44:47.986Z,98779.31
2022-11-29T14:47:24.090Z,98771.69
2022-11-29T14:49:54.054Z,98775.59
2022-11-29T14:52:28.618Z,98781.69
2022-11-29T14:55:05.829Z,98774.84
2022-11-29T14:58:17.890Z,98786.63
2022-11-29T15:01:10.753Z,98787.16
2022-11-29T15:03:50.160Z,98787.09
2022-11-29T15:06:27.207Z,98794.41
2022-11-29T15:09:03.377Z,98798.06
2022-11-29T15:11:48.123Z,98798.19
2022-11-29T15:14:23.952Z,98796.84
2022-11-29T15:17:03.968Z,98801.38
2022-11-29T15:19:55.277Z,98799.22
2022-11-29T15:22:26.463Z,98798.56
2022-11-29T15:24:56.501Z,98805.97
2022-11-29T15:27:25.812Z,98798.22
2022-11-29T15:29:53.760Z,98801.44
2022-11-29T15:32:28.045Z,98806.72
2022-11-29T15:34:56.905Z,98805.56
2022-11-29T15:37:39.590Z,98813.47
2022-11-29T15:40:14.040Z,98810.13
2022-11-29T15:42:45.842Z,98816.50
2022-11-29T15:45:24.696Z,98820.00
2022-11-29T15:47:52.722Z,98818.47
2022-11-29T15:50:30.256Z,98824.38
2022-11-29T15:53:06.352Z,98826.19
2022-11-29T15:55:36.784Z,98827.50
2022-11-29T15:58:08.879Z,98838.00
2022-11-29T16:00:37.361Z,98828.19
2022-11-29T16:03:07.174Z,98831.19
2022-11-29T16:05:37.613Z,98835.78
2022-11-29T16:08:08.432Z,98833.34
2022-11-29T16:10:43.381Z,98838.31
2022-11-29T16:13:32.650Z,98843.97
2022-11-29T16:16:11.362Z,98837.72
2022-11-29T16:18:41.682Z,98851.19
2022-11-29T16:21:26.336Z,98851.28
2022-11-29T16:23:54.851Z,98845.09
2022-11-29T16:26:25.274Z,98846.97
2022-11-29T16:28:57.601Z,98855.44
2022-11-29T16:31:34.403Z,98855.44
2022-11-29T16:34:09.226Z,98858.25
2022-11-29T16:36:37.689Z,98862.59
2022-11-29T16:39:07.963Z,98866.34
2022-11-29T16:41:37.951Z,98862.59
2022-11-29T16:44:28.281Z,98854.09
2022-11-29T16:47:12.084Z,98872.78
2022-11-29T16:49:39.979Z,98864.50
2022-11-29T16:52:25.094Z,98865.03
2022-11-29T16:54:53.041Z,98857.97
2022-11-29T16:57:21.429Z,98864.38
2022-11-29T16:59:51.032Z,98859.34
2022-11-29T17:02:19.421Z,98862.59
2022-11-29T17:04:47.676Z,98873.06
2022-11-29T17:07:21.432Z,98870.44
2022-11-29T17:09:49.424Z,98860.91
2022-11-29T17:12:17.436Z,98872.19
2022-11-29T17:14:45.491Z,98871.28
2022-11-29T17:17:16.585Z,98866.25
2022-11-29T17:19:44.487Z,98867.81
2022-11-29T17:22:13.686Z,98872.00
2022-11-29T17:24:48.068Z,98874.00
2022-11-29T17:27:16.622Z,98876.41
2022-11-29T17:29:44.500Z,98876.69
2022-11-29T17:32:12.331Z,98887.22
2022-11-29T17:34:41.597Z,98884.88
2022-11-29T17:37:09.501Z,98882.94
2022-11-29T17:39:37.380Z,98888.91
2022-11-29T17:42:05.345Z,98889.00
2022-11-29T17:44:34.345Z,98888.56
2022-11-29T17:47:02.268Z,98891.94
2022-11-29T17:49:32.424Z,98894.75
2022-11-29T17:52:01.707Z,98891.44
2022-11-29T17:54:32.918Z,98890.06
2022-11-29T17:57:03.233Z,98894.28
2022-11-29T17:59:31.275Z,98899.19
2022-11-29T18:01:59.416Z,98893.81
2022-11-29T18:04:27.519Z,98899.16
2022-11-29T18:06:55.369Z,98898.22
2022-11-29T18:09:24.603Z,98900.63
2022-11-29T18:11:52.540Z,98900.59
2022-11-29T18:14:22.821Z,98899.09
2022-11-29T18:16:53.380Z,98899.16
2022-11-29T18:19:23.557Z,98904.28
2022-11-29T18:21:52.384Z,98909.97
2022-11-29T18:24:20.323Z,98911.16
2022-11-29T18:26:51.904Z,98910.41
2022-11-29T18:29:20.614Z,98914.38
2022-11-29T18:31:48.557Z,98920.53
2022-11-29T18:34:16.595Z,98920.19
2022-11-29T18:36:46.891Z,98923.72
2022-11-29T18:39:16.671Z,98924.13
2022-11-29T18:41:46.188Z,98927.19
2022-11-29T18:44:17.095Z,98927.91
2022-11-29T18:46:46.059Z,98933.34
2022-11-29T18:49:16.320Z,98934.72
2022-11-29T18:51:45.975Z,98935.22
2022-11-29T18:54:14.545Z,98933.63
2022-11-29T18:56:42.935Z,98936.38
2022-11-29T18:59:12.246Z,98945.16
2022-11-29T19:01:42.823Z,98943.16
2022-11-29T19:04:15.373Z,98942.84
2022-11-29T19:06:44.276Z,98940.84
2022-11-29T19:09:15.057Z,98945.09
2022-11-29T19:11:45.382Z,98939.63
2022-11-29T19:14:14.062Z,98945.22
2022-11-29T19:16:45.283Z,98943.38
2022-11-29T19:19:13.193Z,98949.66
2022-11-29T19:21:41.444Z,98934.06
2022-11-29T19:24:14.889Z,98940.00
2022-11-29T19:26:45.466Z,98932.19
2022-11-29T19:29:14.330Z,98934.34
2022-11-29T19:31:43.929Z,98934.66
2022-11-29T19:34:12.127Z,98931.22
2022-11-29T19:36:44.219Z,98930.44
2022-11-29T19:39:13.843Z,98929.19
2022-11-29T19:41:43.283Z,98927.63
2022-11-29T19:44:11.443Z,98933.09
2022-11-29T19:46:41.382Z,98930.38
2022-11-29T19:49:11.484Z,98923.34
2022-11-29T19:51:39.743Z,98926.91
2022-11-29T19:54:09.840Z,98936.31
2022-11-29T19:56:38.787Z,98939.78
2022-11-29T19:59:07.596Z,98940.69
2022-11-29T20:01:43.683Z,98944.56
2022-11-29T20:04:16.759Z,98945.78
2022-11-29T20:06:46.700Z,98947.75
2022-11-29T20:09:15.042Z,98949.97
2022-11-29T20:11:43.367Z,98959.28
2022-11-29T20:14:12.949Z,98959.44
2022-11-29T20:16:42.549Z,98959.69
2022-11-29T20:19:14.567Z,98963.91
2022-11-29T20:21:44.674Z,98969.81
2022-11-29T20:24:14.509Z,98961.72
2022-11-29T20:26:45.216Z,98965.28
2022-11-29T20:29:14.816Z,98962.84
2022-11-29T20:31:49.656Z,98960.41
2022-11-29T20:34:21.666Z,98961.69
2022-11-29T20:37:32.869Z,98964.13
2022-11-29T20:40:04.308Z,98967.69
2022-11-29T20:43:07.851Z,98959.16
2022-11-29T20:45:37.739Z,98951.66
2022-11-29T20:48:16.027Z,98959.06
2022-11-29T20:50:48.320Z,98966.81
2022-11-29T20:53:30.867Z,98963.63
2022-11-29T20:55:58.897Z,98967.56
2022-11-29T20:58:27.226Z,98968.19
2022-11-29T21:00:55.193Z,98964.25
2022-11-29T21:03:23.460Z,98964.25
2022-11-29T21:05:53.255Z,98958.66
2022-11-29T21:08:22.836Z,98962.72
2022-11-29T21:10:51.504Z,98963.19
2022-11-29T21:13:21.507Z,98956.25
2022-11-29T21:15:50.279Z,98964.72
2022-11-29T21:18:22.497Z,98961.47
2022-11-29T21:21:04.880Z,98972.72
2022-11-29T21:23:44.019Z,98966.44
2022-11-29T21:26:16.446Z,98973.88
2022-11-29T21:28:51.601Z,98974.22
2022-11-29T21:31:19.964Z,98972.56
2022-11-29T21:33:48.407Z,98978.97
2022-11-29T21:36:18.979Z,98972.69
2022-11-29T21:38:52.353Z,98983.50
2022-11-29T21:41:22.681Z,98973.47
2022-11-29T21:44:05.953Z,98974.47
2022-11-29T21:46:35.343Z,98965.88
2022-11-29T21:49:03.750Z,98965.34
2022-11-29T21:51:33.135Z,98969.50
2022-11-29T21:54:01.944Z,98974.28
2022-11-29T21:56:29.793Z,98972.28
2022-11-29T21:58:57.644Z,98978.06
2022-11-29T22:01:28.192Z,98975.94
2022-11-29T22:03:58.245Z,98978.91
2022-11-29T22:06:27.031Z,98982.84
2022-11-29T22:08:59.941Z,98971.13
2022-11-29T22:11:34.351Z,98973.19
2022-11-29T22:14:16.873Z,98974.75
2022-11-29T22:16:49.785Z,98980.53
2022-11-29T22:19:19.116Z,98978.34
2022-11-29T22:21:48.347Z,98980.81
2022-11-29T22:24:19.465Z,98979.34
2022-11-29T22:26:47.998Z,98988.91
2022-11-29T22:29:16.543Z,98989.34
2022-11-29T22:31:46.350Z,98987.06
2022-11-29T22:34:14.696Z,98992.16
2022-11-29T22:36:43.291Z,98997.16
2022-11-29T22:39:11.140Z,98995.63
2022-11-29T22:41:41.245Z,98993.84
2022-11-29T22:44:09.671Z,98990.38
2022-11-29T22:46:40.580Z,98988.69
2022-11-29T22:49:08.588Z,98990.22
2022-11-29T22:51:37.885Z,98990.88
2022-11-29T22:54:07.401Z,98995.66
2022-11-29T22:56:37.330Z,98988.50
2022-11-29T22:59:07.210Z,98991.03
2022-11-29T23:01:36.317Z,98984.94
2022-11-29T23:04:10.936Z,98991.03
2022-11-29T23:06:41.195Z,98992.59
2022-11-29T23:09:15.174Z,98989.59
2022-11-29T23:11:43.988Z,98983.59
2022-11-29T23:14:13.350Z,98993.94
2022-11-29T23:16:41.738Z,98990.22
2022-11-29T23:19:10.289Z,98989.53
2022-11-29T23:21:40.343Z,98990.22
2022-11-29T23:24:09.003Z,98989.19
2022-11-29T23:26:40.171Z,98988.84
2022-11-29T23:29:09.780Z,98998.34
2022-11-29T23:31:39.853Z,98993.50
2022-11-29T23:34:08.546Z,98997.47
2022-11-29T23:36:36.781Z,98991.53
2022-11-29T23:39:05.089Z,98990.22
2022-11-29T23:41:33.087Z,98994.13
2022-11-29T23:44:00.919Z,98984.28
2022-11-29T23:46:28.793Z,98983.09
2022-11-29T23:48:58.281Z,98991.03
2022-11-29T23:51:26.176Z,98986.81
2022-11-29T23:53:54.803Z,98988.25
2022-11-29T23:56:23.459Z,98987.03
2022-11-29T23:58:51.356Z,98987.94
